sensor_id;sensor_type;location;lat;lon;timestamp;temperature;humidity
14182;DHT22;7171;50.936;6.764;2022-11-12T00:00:58;9.90;99.90
14182;DHT22;7171;50.936;6.764;2022-11-12T00:03:25;9.90;99.90
14182;DHT22;7171;50.936;6.764;2022-11-12T00:05:53;9.80;99.90
14182;DHT22;7171;50.936;6.764;2022-11-12T00:08:20;9.80;99.90
14182;DHT22;7171;50.936;6.764;2022-11-12T00:10:47;9.80;99.90
14182;DHT22;7171;50.936;6.764;2022-11-12T00:13:14;9.80;99.90
14182;DHT22;7171;50.936;6.764;2022-11-12T00:15:41;9.80;99.90
14182;DHT22;7171;50.936;6.764;2022-11-12T00:18:08;9.80;99.90
14182;DHT22;7171;50.936;6.764;2022-11-12T00:20:35;9.80;99.90
14182;DHT22;7171;50.936;6.764;2022-11-12T00:23:03;9.70;99.90
14182;DHT22;7171;50.936;6.764;2022-11-12T00:25:30;9.70;99.90
14182;DHT22;7171;50.936;6.764;2022-11-12T00:28:00;9.70;99.90
14182;DHT22;7171;50.936;6.764;2022-11-12T00:30:27;9.70;99.90
14182;DHT22;7171;50.936;6.764;2022-11-12T00:32:54;9.70;99.90
14182;DHT22;7171;50.936;6.764;2022-11-12T00:35:21;9.70;99.90
14182;DHT22;7171;50.936;6.764;2022-11-12T00:37:52;9.60;99.90
14182;DHT22;7171;50.936;6.764;2022-11-12T00:40:21;9.60;99.90
14182;DHT22;7171;50.936;6.764;2022-11-12T00:42:49;9.60;99.90
14182;DHT22;7171;50.936;6.764;2022-11-12T00:45:16;9.60;99.90
14182;DHT22;7171;50.936;6.764;2022-11-12T00:47:42;9.60;99.90
14182;DHT22;7171;50.936;6.764;2022-11-12T00:50:09;9.60;99.90
14182;DHT22;7171;50.936;6.764;2022-11-12T00:52:36;9.60;99.90
14182;DHT22;7171;50.936;6.764;2022-11-12T00:55:03;9.60;99.90
14182;DHT22;7171;50.936;6.764;2022-11-12T00:57:31;9.50;99.90
14182;DHT22;7171;50.936;6.764;2022-11-12T00:59:58;9.50;99.90
14182;DHT22;7171;50.936;6.764;2022-11-12T01:02:24;9.50;99.90
14182;DHT22;7171;50.936;6.764;2022-11-12T01:04:51;9.50;99.90
14182;DHT22;7171;50.936;6.764;2022-11-12T01:07:18;9.50;99.90
14182;DHT22;7171;50.936;6.764;2022-11-12T01:09:44;9.50;99.90
14182;DHT22;7171;50.936;6.764;2022-11-12T01:12:11;9.50;99.90
14182;DHT22;7171;50.936;6.764;2022-11-12T01:14:39;9.50;99.90
14182;DHT22;7171;50.936;6.764;2022-11-12T01:17:06;9.50;99.90
14182;DHT22;7171;50.936;6.764;2022-11-12T01:19:33;9.50;99.90
14182;DHT22;7171;50.936;6.764;2022-11-12T01:22:00;9.50;99.90
14182;DHT22;7171;50.936;6.764;2022-11-12T01:24:26;9.50;99.90
14182;DHT22;7171;50.936;6.764;2022-11-12T01:26:53;9.50;99.90
14182;DHT22;7171;50.936;6.764;2022-11-12T01:29:20;9.50;99.90
14182;DHT22;7171;50.936;6.764;2022-11-12T01:31:48;9.50;99.90
14182;DHT22;7171;50.936;6.764;2022-11-12T01:34:14;9.60;99.90
14182;DHT22;7171;50.936;6.764;2022-11-12T01:36:41;9.60;99.90
14182;DHT22;7171;50.936;6.764;2022-11-12T01:39:08;9.60;99.90
14182;DHT22;7171;50.936;6.764;2022-11-12T01:41:37;9.60;99.90
14182;DHT22;7171;50.936;6.764;2022-11-12T01:44:15;9.60;99.90
14182;DHT22;7171;50.936;6.764;2022-11-12T01:46:57;9.60;99.90
14182;DHT22;7171;50.936;6.764;2022-11-12T01:49:28;9.60;99.90
14182;DHT22;7171;50.936;6.764;2022-11-12T01:52:07;9.60;99.90
14182;DHT22;7171;50.936;6.764;2022-11-12T01:54:36;9.60;99.90
14182;DHT22;7171;50.936;6.764;2022-11-12T01:57:03;9.50;99.90
14182;DHT22;7171;50.936;6.764;2022-11-12T01:59:34;9.50;99.90
14182;DHT22;7171;50.936;6.764;2022-11-12T02:02:04;9.60;99.90
14182;DHT22;7171;50.936;6.764;2022-11-12T02:04:31;9.50;99.90
14182;DHT22;7171;50.936;6.764;2022-11-12T02:06:59;9.50;99.90
14182;DHT22;7171;50.936;6.764;2022-11-12T02:09:28;9.50;99.90
14182;DHT22;7171;50.936;6.764;2022-11-12T02:11:55;9.50;99.90
14182;DHT22;7171;50.936;6.764;2022-11-12T02:14:21;9.60;99.90
14182;DHT22;7171;50.936;6.764;2022-11-12T02:16:48;9.60;99.90
14182;DHT22;7171;50.936;6.764;2022-11-12T02:19:16;9.50;99.90
14182;DHT22;7171;50.936;6.764;2022-11-12T02:21:45;9.50;99.90
14182;DHT22;7171;50.936;6.764;2022-11-12T02:24:30;9.50;99.90
14182;DHT22;7171;50.936;6.764;2022-11-12T02:26:58;9.50;99.90
14182;DHT22;7171;50.936;6.764;2022-11-12T02:29:25;9.50;99.90
14182;DHT22;7171;50.936;6.764;2022-11-12T02:31:52;9.50;99.90
14182;DHT22;7171;50.936;6.764;2022-11-12T02:34:18;9.50;99.90
14182;DHT22;7171;50.936;6.764;2022-11-12T02:36:46;9.50;99.90
14182;DHT22;7171;50.936;6.764;2022-11-12T02:39:13;9.50;99.90
14182;DHT22;7171;50.936;6.764;2022-11-12T02:41:40;9.40;99.90
14182;DHT22;7171;50.936;6.764;2022-11-12T02:44:06;9.50;99.90
14182;DHT22;7171;50.936;6.764;2022-11-12T02:46:33;9.50;99.90
14182;DHT22;7171;50.936;6.764;2022-11-12T02:49:00;9.40;99.90
14182;DHT22;7171;50.936;6.764;2022-11-12T02:51:26;9.40;99.90
14182;DHT22;7171;50.936;6.764;2022-11-12T02:53:54;9.40;99.90
14182;DHT22;7171;50.936;6.764;2022-11-12T02:56:21;9.40;99.90
14182;DHT22;7171;50.936;6.764;2022-11-12T02:58:48;9.40;99.90
14182;DHT22;7171;50.936;6.764;2022-11-12T03:01:14;9.40;99.90
14182;DHT22;7171;50.936;6.764;2022-11-12T03:03:41;9.40;99.90
14182;DHT22;7171;50.936;6.764;2022-11-12T03:06:08;9.30;99.90
14182;DHT22;7171;50.936;6.764;2022-11-12T03:08:34;9.30;99.90
14182;DHT22;7171;50.936;6.764;2022-11-12T03:11:07;9.30;99.90
14182;DHT22;7171;50.936;6.764;2022-11-12T03:13:34;9.30;99.90
14182;DHT22;7171;50.936;6.764;2022-11-12T03:16:01;9.30;99.90
14182;DHT22;7171;50.936;6.764;2022-11-12T03:18:28;9.30;99.90
14182;DHT22;7171;50.936;6.764;2022-11-12T03:20:55;9.20;99.90
14182;DHT22;7171;50.936;6.764;2022-11-12T03:23:21;9.30;99.90
14182;DHT22;7171;50.936;6.764;2022-11-12T03:25:48;9.20;99.90
14182;DHT22;7171;50.936;6.764;2022-11-12T03:28:16;9.20;99.90
14182;DHT22;7171;50.936;6.764;2022-11-12T03:30:43;9.20;99.90
14182;DHT22;7171;50.936;6.764;2022-11-12T03:33:11;9.20;99.90
14182;DHT22;7171;50.936;6.764;2022-11-12T03:35:39;9.20;99.90
14182;DHT22;7171;50.936;6.764;2022-11-12T03:38:06;9.20;99.90
14182;DHT22;7171;50.936;6.764;2022-11-12T03:40:33;9.20;99.90
14182;DHT22;7171;50.936;6.764;2022-11-12T03:43:00;9.20;99.90
14182;DHT22;7171;50.936;6.764;2022-11-12T03:45:28;9.20;99.90
14182;DHT22;7171;50.936;6.764;2022-11-12T03:47:56;9.10;99.90
14182;DHT22;7171;50.936;6.764;2022-11-12T03:50:25;9.10;99.90
14182;DHT22;7171;50.936;6.764;2022-11-12T03:52:53;9.10;99.90
14182;DHT22;7171;50.936;6.764;2022-11-12T03:55:22;9.10;99.90
14182;DHT22;7171;50.936;6.764;2022-11-12T03:57:50;9.10;99.90
14182;DHT22;7171;50.936;6.764;2022-11-12T04:00:17;9.10;99.90
14182;DHT22;7171;50.936;6.764;2022-11-12T04:02:46;9.10;99.90
14182;DHT22;7171;50.936;6.764;2022-11-12T04:05:13;9.10;99.90
14182;DHT22;7171;50.936;6.764;2022-11-12T04:07:57;9.00;99.90
14182;DHT22;7171;50.936;6.764;2022-11-12T04:10:42;9.00;99.90
14182;DHT22;7171;50.936;6.764;2022-11-12T04:13:09;9.00;99.90
14182;DHT22;7171;50.936;6.764;2022-11-12T04:15:55;9.00;99.90
14182;DHT22;7171;50.936;6.764;2022-11-12T04:18:41;9.00;99.90
14182;DHT22;7171;50.936;6.764;2022-11-12T04:21:30;9.00;99.90
14182;DHT22;7171;50.936;6.764;2022-11-12T04:24:15;9.00;99.90
14182;DHT22;7171;50.936;6.764;2022-11-12T04:26:55;9.00;99.90
14182;DHT22;7171;50.936;6.764;2022-11-12T04:29:22;9.00;99.90
14182;DHT22;7171;50.936;6.764;2022-11-12T04:32:06;9.00;99.90
14182;DHT22;7171;50.936;6.764;2022-11-12T04:34:34;8.90;99.90
14182;DHT22;7171;50.936;6.764;2022-11-12T04:37:02;8.90;99.90
14182;DHT22;7171;50.936;6.764;2022-11-12T04:39:28;8.90;99.90
14182;DHT22;7171;50.936;6.764;2022-11-12T04:41:55;8.90;99.90
14182;DHT22;7171;50.936;6.764;2022-11-12T04:44:39;8.90;99.90
14182;DHT22;7171;50.936;6.764;2022-11-12T04:47:29;8.90;99.90
14182;DHT22;7171;50.936;6.764;2022-11-12T04:49:57;8.90;99.90
14182;DHT22;7171;50.936;6.764;2022-11-12T04:52:25;8.90;99.90
14182;DHT22;7171;50.936;6.764;2022-11-12T04:54:52;8.90;99.90
14182;DHT22;7171;50.936;6.764;2022-11-12T04:57:19;8.90;99.90
14182;DHT22;7171;50.936;6.764;2022-11-12T04:59:45;8.90;99.90
14182;DHT22;7171;50.936;6.764;2022-11-12T05:02:12;8.90;99.90
14182;DHT22;7171;50.936;6.764;2022-11-12T05:04:39;8.90;99.90
14182;DHT22;7171;50.936;6.764;2022-11-12T05:07:07;8.90;99.90
14182;DHT22;7171;50.936;6.764;2022-11-12T05:09:34;8.90;99.90
14182;DHT22;7171;50.936;6.764;2022-11-12T05:12:01;8.90;99.90
14182;DHT22;7171;50.936;6.764;2022-11-12T05:14:28;8.90;99.90
14182;DHT22;7171;50.936;6.764;2022-11-12T05:16:55;8.90;99.90
14182;DHT22;7171;50.936;6.764;2022-11-12T05:19:21;8.90;99.90
14182;DHT22;7171;50.936;6.764;2022-11-12T05:21:48;8.90;99.90
14182;DHT22;7171;50.936;6.764;2022-11-12T05:24:33;8.90;99.90
14182;DHT22;7171;50.936;6.764;2022-11-12T05:27:00;8.90;99.90
14182;DHT22;7171;50.936;6.764;2022-11-12T05:29:26;8.90;99.90
14182;DHT22;7171;50.936;6.764;2022-11-12T05:31:53;8.90;99.90
14182;DHT22;7171;50.936;6.764;2022-11-12T05:34:20;8.90;99.90
14182;DHT22;7171;50.936;6.764;2022-11-12T05:36:47;8.80;99.90
14182;DHT22;7171;50.936;6.764;2022-11-12T05:39:14;8.80;99.90
14182;DHT22;7171;50.936;6.764;2022-11-12T05:41:42;8.80;99.90
14182;DHT22;7171;50.936;6.764;2022-11-12T05:44:08;8.80;99.90
14182;DHT22;7171;50.936;6.764;2022-11-12T05:46:35;8.80;99.90
14182;DHT22;7171;50.936;6.764;2022-11-12T05:49:02;8.80;99.90
14182;DHT22;7171;50.936;6.764;2022-11-12T05:51:29;8.80;99.90
14182;DHT22;7171;50.936;6.764;2022-11-12T05:53:55;8.80;99.90
14182;DHT22;7171;50.936;6.764;2022-11-12T05:56:22;8.70;99.90
14182;DHT22;7171;50.936;6.764;2022-11-12T05:58:50;8.70;99.90
14182;DHT22;7171;50.936;6.764;2022-11-12T06:01:17;8.70;99.90
14182;DHT22;7171;50.936;6.764;2022-11-12T06:03:44;8.70;99.90
14182;DHT22;7171;50.936;6.764;2022-11-12T06:06:10;8.60;99.90
14182;DHT22;7171;50.936;6.764;2022-11-12T06:08:37;8.60;99.90
14182;DHT22;7171;50.936;6.764;2022-11-12T06:11:04;8.60;99.90
14182;DHT22;7171;50.936;6.764;2022-11-12T06:13:31;8.50;99.90
14182;DHT22;7171;50.936;6.764;2022-11-12T06:15:59;8.50;99.90
14182;DHT22;7171;50.936;6.764;2022-11-12T06:18:25;8.50;99.90
14182;DHT22;7171;50.936;6.764;2022-11-12T06:20:52;8.40;99.90
14182;DHT22;7171;50.936;6.764;2022-11-12T06:23:37;8.40;99.90
14182;DHT22;7171;50.936;6.764;2022-11-12T06:26:03;8.40;99.90
14182;DHT22;7171;50.936;6.764;2022-11-12T06:28:30;8.30;99.90
14182;DHT22;7171;50.936;6.764;2022-11-12T06:30:58;8.30;99.90
14182;DHT22;7171;50.936;6.764;2022-11-12T06:33:25;8.30;99.90
14182;DHT22;7171;50.936;6.764;2022-11-12T06:35:59;8.30;99.90
14182;DHT22;7171;50.936;6.764;2022-11-12T06:38:28;8.30;99.90
14182;DHT22;7171;50.936;6.764;2022-11-12T06:40:55;8.30;99.90
14182;DHT22;7171;50.936;6.764;2022-11-12T06:43:22;8.30;99.90
14182;DHT22;7171;50.936;6.764;2022-11-12T06:45:49;8.30;99.90
14182;DHT22;7171;50.936;6.764;2022-11-12T06:48:17;8.30;99.90
14182;DHT22;7171;50.936;6.764;2022-11-12T06:50:44;8.30;99.90
14182;DHT22;7171;50.936;6.764;2022-11-12T06:53:11;8.30;99.90
14182;DHT22;7171;50.936;6.764;2022-11-12T06:55:37;8.30;99.90
14182;DHT22;7171;50.936;6.764;2022-11-12T06:58:04;8.30;99.90
14182;DHT22;7171;50.936;6.764;2022-11-12T07:00:31;8.30;99.90
14182;DHT22;7171;50.936;6.764;2022-11-12T07:02:57;8.30;99.90
14182;DHT22;7171;50.936;6.764;2022-11-12T07:05:25;8.40;99.90
14182;DHT22;7171;50.936;6.764;2022-11-12T07:07:53;8.40;99.90
14182;DHT22;7171;50.936;6.764;2022-11-12T07:10:20;8.40;99.90
14182;DHT22;7171;50.936;6.764;2022-11-12T07:12:47;8.40;99.90
14182;DHT22;7171;50.936;6.764;2022-11-12T07:15:13;8.40;99.90
14182;DHT22;7171;50.936;6.764;2022-11-12T07:17:43;8.40;99.90
14182;DHT22;7171;50.936;6.764;2022-11-12T07:20:11;8.40;99.90
14182;DHT22;7171;50.936;6.764;2022-11-12T07:22:39;8.40;99.90
14182;DHT22;7171;50.936;6.764;2022-11-12T07:25:06;8.40;99.90
14182;DHT22;7171;50.936;6.764;2022-11-12T07:27:33;8.40;99.90
14182;DHT22;7171;50.936;6.764;2022-11-12T07:29:59;8.40;99.90
14182;DHT22;7171;50.936;6.764;2022-11-12T07:32:26;8.40;99.90
14182;DHT22;7171;50.936;6.764;2022-11-12T07:34:53;8.40;99.90
14182;DHT22;7171;50.936;6.764;2022-11-12T07:37:19;8.40;99.90
14182;DHT22;7171;50.936;6.764;2022-11-12T07:39:48;8.50;99.90
14182;DHT22;7171;50.936;6.764;2022-11-12T07:42:15;8.50;99.90
14182;DHT22;7171;50.936;6.764;2022-11-12T07:44:41;8.50;99.90
14182;DHT22;7171;50.936;6.764;2022-11-12T07:47:08;8.50;99.90
14182;DHT22;7171;50.936;6.764;2022-11-12T07:49:35;8.50;99.90
14182;DHT22;7171;50.936;6.764;2022-11-12T07:52:01;8.50;99.90
14182;DHT22;7171;50.936;6.764;2022-11-12T07:54:28;8.50;99.90
14182;DHT22;7171;50.936;6.764;2022-11-12T07:56:56;8.60;99.90
14182;DHT22;7171;50.936;6.764;2022-11-12T07:59:23;8.60;99.90
14182;DHT22;7171;50.936;6.764;2022-11-12T08:01:50;8.60;99.90
14182;DHT22;7171;50.936;6.764;2022-11-12T08:04:16;8.60;99.90
14182;DHT22;7171;50.936;6.764;2022-11-12T08:06:43;8.60;99.90
14182;DHT22;7171;50.936;6.764;2022-11-12T08:09:10;8.60;99.90
14182;DHT22;7171;50.936;6.764;2022-11-12T08:11:37;8.60;99.90
14182;DHT22;7171;50.936;6.764;2022-11-12T08:14:05;8.70;99.90
14182;DHT22;7171;50.936;6.764;2022-11-12T08:16:31;8.70;99.90
14182;DHT22;7171;50.936;6.764;2022-11-12T08:18:59;8.70;99.90
14182;DHT22;7171;50.936;6.764;2022-11-12T08:21:26;8.80;99.90
14182;DHT22;7171;50.936;6.764;2022-11-12T08:23:52;8.80;99.90
14182;DHT22;7171;50.936;6.764;2022-11-12T08:26:20;8.80;99.90
14182;DHT22;7171;50.936;6.764;2022-11-12T08:28:47;8.90;99.90
14182;DHT22;7171;50.936;6.764;2022-11-12T08:31:16;8.90;99.90
14182;DHT22;7171;50.936;6.764;2022-11-12T08:33:44;9.00;99.90
14182;DHT22;7171;50.936;6.764;2022-11-12T08:36:12;9.00;99.90
14182;DHT22;7171;50.936;6.764;2022-11-12T08:38:39;9.00;99.90
14182;DHT22;7171;50.936;6.764;2022-11-12T08:41:08;9.10;99.90
14182;DHT22;7171;50.936;6.764;2022-11-12T08:43:36;9.10;99.90
14182;DHT22;7171;50.936;6.764;2022-11-12T08:46:03;9.20;99.90
14182;DHT22;7171;50.936;6.764;2022-11-12T08:48:32;9.20;99.90
14182;DHT22;7171;50.936;6.764;2022-11-12T08:51:00;9.30;99.90
14182;DHT22;7171;50.936;6.764;2022-11-12T08:53:26;9.30;99.90
14182;DHT22;7171;50.936;6.764;2022-11-12T08:55:54;9.40;99.90
14182;DHT22;7171;50.936;6.764;2022-11-12T08:58:21;9.50;99.90
14182;DHT22;7171;50.936;6.764;2022-11-12T09:00:48;9.50;99.90
14182;DHT22;7171;50.936;6.764;2022-11-12T09:03:18;9.60;99.90
14182;DHT22;7171;50.936;6.764;2022-11-12T09:05:46;9.70;99.90
14182;DHT22;7171;50.936;6.764;2022-11-12T09:08:16;9.70;99.90
14182;DHT22;7171;50.936;6.764;2022-11-12T09:10:44;9.80;99.90
14182;DHT22;7171;50.936;6.764;2022-11-12T09:13:11;9.80;99.90
14182;DHT22;7171;50.936;6.764;2022-11-12T09:15:38;9.90;99.90
14182;DHT22;7171;50.936;6.764;2022-11-12T09:18:09;9.90;99.90
14182;DHT22;7171;50.936;6.764;2022-11-12T09:20:36;10.00;99.90
14182;DHT22;7171;50.936;6.764;2022-11-12T09:23:07;10.00;99.90
14182;DHT22;7171;50.936;6.764;2022-11-12T09:25:34;10.10;99.90
14182;DHT22;7171;50.936;6.764;2022-11-12T09:28:06;10.10;99.90
14182;DHT22;7171;50.936;6.764;2022-11-12T09:30:33;10.20;99.90
14182;DHT22;7171;50.936;6.764;2022-11-12T09:33:00;10.20;99.90
14182;DHT22;7171;50.936;6.764;2022-11-12T09:35:27;10.30;99.90
14182;DHT22;7171;50.936;6.764;2022-11-12T09:37:53;10.30;99.90
14182;DHT22;7171;50.936;6.764;2022-11-12T09:40:31;10.40;99.90
14182;DHT22;7171;50.936;6.764;2022-11-12T09:43:10;10.40;99.90
14182;DHT22;7171;50.936;6.764;2022-11-12T09:45:37;10.50;99.90
14182;DHT22;7171;50.936;6.764;2022-11-12T09:48:08;10.50;99.90
14182;DHT22;7171;50.936;6.764;2022-11-12T09:50:41;10.60;99.90
14182;DHT22;7171;50.936;6.764;2022-11-12T09:53:16;10.60;99.90
14182;DHT22;7171;50.936;6.764;2022-11-12T09:55:48;10.70;99.90
14182;DHT22;7171;50.936;6.764;2022-11-12T09:58:17;10.70;99.90
14182;DHT22;7171;50.936;6.764;2022-11-12T10:00:51;10.80;99.90
14182;DHT22;7171;50.936;6.764;2022-11-12T10:03:28;10.80;99.90
14182;DHT22;7171;50.936;6.764;2022-11-12T10:05:59;10.90;99.90
14182;DHT22;7171;50.936;6.764;2022-11-12T10:08:35;10.90;99.90
14182;DHT22;7171;50.936;6.764;2022-11-12T10:11:14;11.00;99.90
14182;DHT22;7171;50.936;6.764;2022-11-12T10:13:52;11.00;99.90
14182;DHT22;7171;50.936;6.764;2022-11-12T10:16:39;11.10;99.90
14182;DHT22;7171;50.936;6.764;2022-11-12T10:19:31;11.10;99.90
14182;DHT22;7171;50.936;6.764;2022-11-12T10:22:09;11.10;99.90
14182;DHT22;7171;50.936;6.764;2022-11-12T10:24:38;11.20;99.90
14182;DHT22;7171;50.936;6.764;2022-11-12T10:27:14;11.20;99.90
14182;DHT22;7171;50.936;6.764;2022-11-12T10:29:48;11.30;99.90
14182;DHT22;7171;50.936;6.764;2022-11-12T10:32:17;11.30;99.90
14182;DHT22;7171;50.936;6.764;2022-11-12T10:34:44;11.40;99.90
14182;DHT22;7171;50.936;6.764;2022-11-12T10:37:14;11.40;99.90
14182;DHT22;7171;50.936;6.764;2022-11-12T10:39:43;11.50;99.90
14182;DHT22;7171;50.936;6.764;2022-11-12T10:42:15;11.50;99.90
14182;DHT22;7171;50.936;6.764;2022-11-12T10:44:41;11.60;99.90
14182;DHT22;7171;50.936;6.764;2022-11-12T10:47:26;11.60;99.90
14182;DHT22;7171;50.936;6.764;2022-11-12T10:50:11;11.70;99.90
14182;DHT22;7171;50.936;6.764;2022-11-12T10:52:52;11.70;99.90
14182;DHT22;7171;50.936;6.764;2022-11-12T10:55:20;11.80;99.90
14182;DHT22;7171;50.936;6.764;2022-11-12T10:58:05;11.80;99.90
14182;DHT22;7171;50.936;6.764;2022-11-12T11:00:32;11.80;99.90
14182;DHT22;7171;50.936;6.764;2022-11-12T11:03:01;11.90;99.90
14182;DHT22;7171;50.936;6.764;2022-11-12T11:05:31;12.00;99.90
14182;DHT22;7171;50.936;6.764;2022-11-12T11:07:58;12.00;99.90
14182;DHT22;7171;50.936;6.764;2022-11-12T11:10:28;12.10;99.90
14182;DHT22;7171;50.936;6.764;2022-11-12T11:13:19;12.10;99.90
14182;DHT22;7171;50.936;6.764;2022-11-12T11:15:58;12.20;99.90
14182;DHT22;7171;50.936;6.764;2022-11-12T11:18:26;12.30;99.90
14182;DHT22;7171;50.936;6.764;2022-11-12T11:21:02;12.30;99.90
14182;DHT22;7171;50.936;6.764;2022-11-12T11:23:34;12.40;99.90
14182;DHT22;7171;50.936;6.764;2022-11-12T11:26:17;12.40;99.90
14182;DHT22;7171;50.936;6.764;2022-11-12T11:28:52;12.50;99.90
14182;DHT22;7171;50.936;6.764;2022-11-12T11:31:28;12.60;99.90
14182;DHT22;7171;50.936;6.764;2022-11-12T11:34:09;12.60;99.90
14182;DHT22;7171;50.936;6.764;2022-11-12T11:36:45;12.70;99.90
14182;DHT22;7171;50.936;6.764;2022-11-12T11:39:20;12.70;99.90
14182;DHT22;7171;50.936;6.764;2022-11-12T11:41:57;12.80;99.90
14182;DHT22;7171;50.936;6.764;2022-11-12T11:44:37;12.80;99.90
14182;DHT22;7171;50.936;6.764;2022-11-12T11:47:17;12.90;99.90
14182;DHT22;7171;50.936;6.764;2022-11-12T11:55:41;13.10;99.90
14182;DHT22;7171;50.936;6.764;2022-11-12T11:58:22;13.10;99.90
14182;DHT22;7171;50.936;6.764;2022-11-12T12:01:01;13.10;99.90
14182;DHT22;7171;50.936;6.764;2022-11-12T12:03:40;13.20;99.90
14182;DHT22;7171;50.936;6.764;2022-11-12T12:06:19;13.20;99.90
14182;DHT22;7171;50.936;6.764;2022-11-12T12:08:58;13.20;99.90
14182;DHT22;7171;50.936;6.764;2022-11-12T12:11:33;13.30;99.90
14182;DHT22;7171;50.936;6.764;2022-11-12T12:14:19;13.30;99.90
14182;DHT22;7171;50.936;6.764;2022-11-12T12:16:59;13.40;99.90
14182;DHT22;7171;50.936;6.764;2022-11-12T12:19:43;13.40;99.90
14182;DHT22;7171;50.936;6.764;2022-11-12T12:22:17;13.50;99.90
14182;DHT22;7171;50.936;6.764;2022-11-12T12:24:48;13.50;99.90
14182;DHT22;7171;50.936;6.764;2022-11-12T12:27:19;13.50;99.90
14182;DHT22;7171;50.936;6.764;2022-11-12T12:29:48;13.60;99.90
14182;DHT22;7171;50.936;6.764;2022-11-12T12:32:21;13.60;99.90
14182;DHT22;7171;50.936;6.764;2022-11-12T12:34:55;13.70;99.90
14182;DHT22;7171;50.936;6.764;2022-11-12T12:37:32;13.70;99.90
14182;DHT22;7171;50.936;6.764;2022-11-12T12:40:08;13.80;99.90
14182;DHT22;7171;50.936;6.764;2022-11-12T12:42:50;13.80;99.90
14182;DHT22;7171;50.936;6.764;2022-11-12T12:45:31;13.80;99.90
14182;DHT22;7171;50.936;6.764;2022-11-12T12:48:04;13.90;99.90
14182;DHT22;7171;50.936;6.764;2022-11-12T12:50:38;13.90;99.90
14182;DHT22;7171;50.936;6.764;2022-11-12T12:53:17;13.90;99.90
14182;DHT22;7171;50.936;6.764;2022-11-12T12:55:45;14.00;99.90
14182;DHT22;7171;50.936;6.764;2022-11-12T12:58:24;14.00;99.90
14182;DHT22;7171;50.936;6.764;2022-11-12T13:00:52;14.10;99.90
14182;DHT22;7171;50.936;6.764;2022-11-12T13:03:47;14.10;99.90
14182;DHT22;7171;50.936;6.764;2022-11-12T13:06:22;14.20;99.90
14182;DHT22;7171;50.936;6.764;2022-11-12T13:08:51;14.20;99.90
14182;DHT22;7171;50.936;6.764;2022-11-12T13:11:47;14.30;99.90
14182;DHT22;7171;50.936;6.764;2022-11-12T13:15:07;14.30;99.90
14182;DHT22;7171;50.936;6.764;2022-11-12T13:17:43;14.40;99.90
14182;DHT22;7171;50.936;6.764;2022-11-12T13:23:07;14.40;99.90
14182;DHT22;7171;50.936;6.764;2022-11-12T13:25:34;14.50;99.90
14182;DHT22;7171;50.936;6.764;2022-11-12T13:28:06;14.50;99.90
14182;DHT22;7171;50.936;6.764;2022-11-12T13:30:59;14.60;99.90
14182;DHT22;7171;50.936;6.764;2022-11-12T13:33:29;14.60;99.90
14182;DHT22;7171;50.936;6.764;2022-11-12T13:36:26;14.60;99.90
14182;DHT22;7171;50.936;6.764;2022-11-12T13:39:09;14.60;99.90
14182;DHT22;7171;50.936;6.764;2022-11-12T13:41:38;14.70;99.90
14182;DHT22;7171;50.936;6.764;2022-11-12T13:44:22;14.70;99.90
14182;DHT22;7171;50.936;6.764;2022-11-12T13:46:49;14.70;99.90
14182;DHT22;7171;50.936;6.764;2022-11-12T13:49:18;14.70;99.90
14182;DHT22;7171;50.936;6.764;2022-11-12T13:51:47;14.80;99.90
14182;DHT22;7171;50.936;6.764;2022-11-12T13:54:29;14.80;99.90
14182;DHT22;7171;50.936;6.764;2022-11-12T13:57:10;14.80;99.90
14182;DHT22;7171;50.936;6.764;2022-11-12T13:59:38;14.80;99.90
14182;DHT22;7171;50.936;6.764;2022-11-12T14:02:18;14.80;99.90
14182;DHT22;7171;50.936;6.764;2022-11-12T14:04:45;14.80;99.90
14182;DHT22;7171;50.936;6.764;2022-11-12T14:07:26;14.80;99.90
14182;DHT22;7171;50.936;6.764;2022-11-12T14:10:02;14.80;99.90
14182;DHT22;7171;50.936;6.764;2022-11-12T14:12:53;14.80;99.90
14182;DHT22;7171;50.936;6.764;2022-11-12T14:15:45;14.80;99.90
14182;DHT22;7171;50.936;6.764;2022-11-12T14:18:19;14.80;99.90
14182;DHT22;7171;50.936;6.764;2022-11-12T14:20:49;14.80;99.90
14182;DHT22;7171;50.936;6.764;2022-11-12T14:23:17;14.90;99.90
14182;DHT22;7171;50.936;6.764;2022-11-12T14:25:48;14.90;99.90
14182;DHT22;7171;50.936;6.764;2022-11-12T14:28:24;14.90;99.90
14182;DHT22;7171;50.936;6.764;2022-11-12T14:30:51;14.80;99.90
14182;DHT22;7171;50.936;6.764;2022-11-12T14:33:19;14.80;99.90
14182;DHT22;7171;50.936;6.764;2022-11-12T14:35:47;14.80;99.90
14182;DHT22;7171;50.936;6.764;2022-11-12T14:38:17;14.80;99.90
14182;DHT22;7171;50.936;6.764;2022-11-12T14:40:49;14.80;99.90
14182;DHT22;7171;50.936;6.764;2022-11-12T14:43:35;14.80;99.90
14182;DHT22;7171;50.936;6.764;2022-11-12T14:46:04;14.80;99.90
14182;DHT22;7171;50.936;6.764;2022-11-12T14:48:35;14.80;99.90
14182;DHT22;7171;50.936;6.764;2022-11-12T14:51:10;14.80;99.90
14182;DHT22;7171;50.936;6.764;2022-11-12T14:53:41;14.80;99.90
14182;DHT22;7171;50.936;6.764;2022-11-12T14:56:15;14.70;99.90
14182;DHT22;7171;50.936;6.764;2022-11-12T14:58:43;14.70;99.90
14182;DHT22;7171;50.936;6.764;2022-11-12T15:01:20;14.70;99.90
14182;DHT22;7171;50.936;6.764;2022-11-12T15:03:48;14.70;99.90
14182;DHT22;7171;50.936;6.764;2022-11-12T15:06:20;14.70;99.90
14182;DHT22;7171;50.936;6.764;2022-11-12T15:08:55;14.70;99.90
14182;DHT22;7171;50.936;6.764;2022-11-12T15:11:27;14.70;99.90
14182;DHT22;7171;50.936;6.764;2022-11-12T15:13:55;14.70;99.90
14182;DHT22;7171;50.936;6.764;2022-11-12T15:16:28;14.70;99.90
14182;DHT22;7171;50.936;6.764;2022-11-12T15:19:17;14.70;99.90
14182;DHT22;7171;50.936;6.764;2022-11-12T15:21:47;14.60;99.90
14182;DHT22;7171;50.936;6.764;2022-11-12T15:24:18;14.60;99.90
14182;DHT22;7171;50.936;6.764;2022-11-12T15:26:47;14.60;99.90
14182;DHT22;7171;50.936;6.764;2022-11-12T15:29:26;14.60;99.90
14182;DHT22;7171;50.936;6.764;2022-11-12T15:31:55;14.60;99.90
14182;DHT22;7171;50.936;6.764;2022-11-12T15:34:44;14.60;99.90
14182;DHT22;7171;50.936;6.764;2022-11-12T15:37:20;14.60;99.90
14182;DHT22;7171;50.936;6.764;2022-11-12T15:39:51;14.60;99.90
14182;DHT22;7171;50.936;6.764;2022-11-12T15:42:25;14.50;99.90
14182;DHT22;7171;50.936;6.764;2022-11-12T15:44:57;14.50;99.90
14182;DHT22;7171;50.936;6.764;2022-11-12T15:47:24;14.50;99.90
14182;DHT22;7171;50.936;6.764;2022-11-12T15:49:52;14.40;99.90
14182;DHT22;7171;50.936;6.764;2022-11-12T15:52:20;14.40;99.90
14182;DHT22;7171;50.936;6.764;2022-11-12T15:54:46;14.40;99.90
14182;DHT22;7171;50.936;6.764;2022-11-12T15:57:15;14.30;99.90
14182;DHT22;7171;50.936;6.764;2022-11-12T15:59:44;14.30;99.90
14182;DHT22;7171;50.936;6.764;2022-11-12T16:02:16;14.30;99.90
14182;DHT22;7171;50.936;6.764;2022-11-12T16:04:42;14.20;99.90
14182;DHT22;7171;50.936;6.764;2022-11-12T16:07:09;14.20;99.90
14182;DHT22;7171;50.936;6.764;2022-11-12T16:09:36;14.20;99.90
14182;DHT22;7171;50.936;6.764;2022-11-12T16:12:03;14.10;99.90
14182;DHT22;7171;50.936;6.764;2022-11-12T16:14:30;14.10;99.90
14182;DHT22;7171;50.936;6.764;2022-11-12T16:16:58;14.00;99.90
14182;DHT22;7171;50.936;6.764;2022-11-12T16:19:25;14.00;99.90
14182;DHT22;7171;50.936;6.764;2022-11-12T16:21:52;14.00;99.90
14182;DHT22;7171;50.936;6.764;2022-11-12T16:24:18;13.90;99.90
14182;DHT22;7171;50.936;6.764;2022-11-12T16:26:45;13.90;99.90